createdAt,value
2019-02-16T00:02:31.985Z,10.70
2019-02-16T00:05:12.512Z,10.50
2019-02-16T00:07:53.199Z,10.50
2019-02-16T00:10:33.616Z,10.50
2019-02-16T00:13:14.601Z,10.50
2019-02-16T00:15:55.161Z,10.60
2019-02-16T00:18:35.413Z,10.50
2019-02-16T00:21:16.340Z,10.60
2019-02-16T00:23:57.033Z,10.60
2019-02-16T00:26:37.647Z,10.60
2019-02-16T00:29:18.141Z,10.50
2019-02-16T00:31:59.196Z,10.50
2019-02-16T00:34:39.760Z,10.50
2019-02-16T00:37:20.045Z,10.40
2019-02-16T00:40:01.357Z,10.40
2019-02-16T00:42:30.100Z,10.30
2019-02-16T00:45:17.869Z,10.20
2019-02-16T00:48:05.732Z,10.30
2019-02-16T00:50:53.505Z,10.30
2019-02-16T00:53:41.247Z,10.20
2019-02-16T00:56:29.012Z,10.20
2019-02-16T00:59:16.752Z,10.10
2019-02-16T01:02:04.948Z,10.10
2019-02-16T01:04:52.995Z,10.10
2019-02-16T01:07:40.790Z,10.10
2019-02-16T01:10:28.537Z,10.10
2019-02-16T01:13:16.305Z,10.10
2019-02-16T01:16:04.259Z,10.10
2019-02-16T01:18:52.041Z,10.20
2019-02-16T01:21:39.786Z,10.20
2019-02-16T01:24:27.561Z,10.10
2019-02-16T01:27:15.500Z,10.00
2019-02-16T01:30:04.017Z,10.00
2019-02-16T01:32:51.772Z,10.10
2019-02-16T01:35:39.790Z,10.00
2019-02-16T01:38:20.204Z,10.00
2019-02-16T01:41:00.585Z,10.00
2019-02-16T01:43:41.676Z,10.00
2019-02-16T01:46:22.381Z,10.00
2019-02-16T01:49:03.269Z,9.90
2019-02-16T01:51:43.730Z,9.90
2019-02-16T01:54:25.160Z,10.00
2019-02-16T01:57:05.951Z,10.00
2019-02-16T01:59:46.345Z,9.80
2019-02-16T02:02:27.329Z,9.70
2019-02-16T02:05:16.330Z,9.60
2019-02-16T02:07:53.217Z,9.70
2019-02-16T02:10:34.088Z,9.90
2019-02-16T02:13:15.008Z,9.80
2019-02-16T02:15:55.595Z,9.90
2019-02-16T02:18:36.588Z,9.80
2019-02-16T02:21:17.706Z,9.70
2019-02-16T02:23:58.029Z,9.70
2019-02-16T02:26:38.493Z,9.60
2019-02-16T02:29:19.240Z,9.70
2019-02-16T02:31:59.909Z,9.70
2019-02-16T02:34:40.489Z,9.60
2019-02-16T02:37:21.234Z,9.70
2019-02-16T02:40:02.188Z,9.70
2019-02-16T02:42:42.774Z,9.70
2019-02-16T02:45:23.089Z,9.60
2019-02-16T02:48:03.305Z,9.50
2019-02-16T02:50:44.072Z,9.60
2019-02-16T02:53:31.068Z,9.60
2019-02-16T02:56:06.741Z,9.60
2019-02-16T02:58:35.158Z,9.60
2019-02-16T03:01:22.932Z,9.50
2019-02-16T03:04:10.684Z,9.60
2019-02-16T03:06:58.470Z,9.60
2019-02-16T03:09:46.291Z,9.60
2019-02-16T03:12:34.024Z,9.60
2019-02-16T03:15:22.061Z,9.50
2019-02-16T03:18:09.788Z,9.50
2019-02-16T03:20:57.570Z,9.40
2019-02-16T03:23:45.306Z,9.50
2019-02-16T03:26:53.796Z,9.20
2019-02-16T03:30:01.142Z,9.20
2019-02-16T03:33:08.267Z,9.40
2019-02-16T03:36:15.671Z,9.30
2019-02-16T03:39:23.892Z,9.20
2019-02-16T03:42:04.456Z,9.00
2019-02-16T03:44:45.473Z,9.00
2019-02-16T03:47:26.317Z,9.00
2019-02-16T03:50:07.020Z,8.90
2019-02-16T03:52:47.790Z,9.20
2019-02-16T03:55:28.600Z,9.30
2019-02-16T03:58:09.577Z,9.40
2019-02-16T04:00:50.004Z,9.40
2019-02-16T04:03:31.049Z,9.30
2019-02-16T04:05:59.464Z,9.20
2019-02-16T04:08:47.223Z,9.10
2019-02-16T04:14:43.658Z,8.90
2019-02-16T04:17:31.739Z,8.70
2019-02-16T04:20:12.121Z,8.80
2019-02-16T04:22:53.054Z,8.90
2019-02-16T04:25:33.860Z,9.10
2019-02-16T04:28:14.801Z,9.00
2019-02-16T04:30:55.780Z,9.00
2019-02-16T04:33:36.382Z,9.10
2019-02-16T04:36:17.329Z,9.10
2019-02-16T04:38:57.950Z,9.10
2019-02-16T04:41:38.542Z,9.00
2019-02-16T04:44:19.367Z,9.00
2019-02-16T04:46:59.790Z,8.90
2019-02-16T04:49:40.788Z,8.90
2019-02-16T04:52:21.557Z,8.90
2019-02-16T04:55:02.172Z,8.90
2019-02-16T04:57:42.840Z,8.90
2019-02-16T05:00:24.001Z,8.90
2019-02-16T05:03:04.765Z,8.90
2019-02-16T05:05:45.880Z,8.90
2019-02-16T05:08:26.786Z,8.90
2019-02-16T05:11:07.337Z,8.90
2019-02-16T05:13:47.933Z,8.90
2019-02-16T05:16:28.716Z,8.80
2019-02-16T05:19:09.639Z,8.90
2019-02-16T05:21:50.153Z,8.90
2019-02-16T05:24:30.614Z,8.90
2019-02-16T05:27:11.511Z,8.80
2019-02-16T05:29:52.612Z,8.70
2019-02-16T05:32:33.249Z,8.60
2019-02-16T05:35:13.922Z,8.60
2019-02-16T05:37:54.257Z,8.60
2019-02-16T05:40:35.125Z,8.50
2019-02-16T05:43:16.163Z,8.50
2019-02-16T05:45:56.844Z,8.60
2019-02-16T05:48:37.741Z,8.50
2019-02-16T05:51:18.631Z,8.40
2019-02-16T05:53:59.149Z,8.40
2019-02-16T05:56:39.997Z,8.40
2019-02-16T05:59:21.029Z,8.60
2019-02-16T06:02:01.600Z,8.70
2019-02-16T06:04:42.274Z,8.60
2019-02-16T06:07:23.103Z,8.50
2019-02-16T06:10:03.781Z,8.50
2019-02-16T06:12:44.525Z,8.20
2019-02-16T06:15:25.296Z,8.30
2019-02-16T06:18:05.852Z,8.40
2019-02-16T06:20:46.555Z,8.40
2019-02-16T06:23:14.953Z,8.50
2019-02-16T06:26:02.731Z,8.50
2019-02-16T06:28:50.758Z,8.30
2019-02-16T06:31:38.500Z,8.40
2019-02-16T06:34:26.256Z,8.30
2019-02-16T06:37:33.242Z,8.40
2019-02-16T06:40:21.261Z,8.50
2019-02-16T06:43:09.107Z,8.60
2019-02-16T06:45:49.951Z,8.50
2019-02-16T06:48:31.056Z,8.50
2019-02-16T06:51:11.989Z,8.70
2019-02-16T06:53:52.820Z,8.70
2019-02-16T06:56:38.260Z,8.70
2019-02-16T06:59:19.090Z,8.70
2019-02-16T07:02:00.108Z,8.60
2019-02-16T07:04:42.126Z,8.70
2019-02-16T07:07:22.972Z,8.60
2019-02-16T07:10:03.976Z,8.70
2019-02-16T07:12:44.360Z,8.50
2019-02-16T07:15:25.022Z,8.40
2019-02-16T07:18:07.188Z,8.50
2019-02-16T07:20:47.357Z,8.50
2019-02-16T07:23:28.351Z,8.50
2019-02-16T07:26:09.112Z,8.50
2019-02-16T07:28:49.904Z,8.50
2019-02-16T07:31:30.435Z,8.80
2019-02-16T07:34:10.880Z,8.70
2019-02-16T07:36:51.116Z,8.70
2019-02-16T07:39:19.539Z,8.60
2019-02-16T07:42:07.296Z,8.90
2019-02-16T07:44:49.538Z,8.80
2019-02-16T07:47:49.905Z,9.00
2019-02-16T07:53:56.678Z,9.00
2019-02-16T07:59:49.705Z,9.30
2019-02-16T08:05:48.036Z,9.30
2019-02-16T08:11:38.349Z,9.40
2019-02-16T08:14:24.248Z,9.40
2019-02-16T08:17:24.278Z,9.40
2019-02-16T08:23:00.616Z,9.50
2019-02-16T08:26:00.698Z,9.50
2019-02-16T08:31:39.833Z,9.60
2019-02-16T08:34:21.809Z,9.50
2019-02-16T08:37:06.828Z,9.70
2019-02-16T08:39:51.756Z,9.60
2019-02-16T08:42:51.173Z,9.70
2019-02-16T08:45:36.051Z,9.80
2019-02-16T08:48:36.327Z,9.90
2019-02-16T08:51:18.221Z,10.20
2019-02-16T08:54:18.594Z,10.20
2019-02-16T08:57:01.292Z,10.30
2019-02-16T08:59:43.208Z,10.40
2019-02-16T09:02:28.569Z,10.60
2019-02-16T09:05:11.659Z,10.70
2019-02-16T09:07:54.372Z,10.70
2019-02-16T09:10:37.017Z,10.80
2019-02-16T09:13:22.655Z,10.80
2019-02-16T09:16:07.415Z,10.90
2019-02-16T09:18:49.720Z,10.90
2019-02-16T09:24:45.887Z,11.10
2019-02-16T09:31:01.354Z,11.30
2019-02-16T09:33:49.227Z,11.40
2019-02-16T09:36:56.338Z,11.30
2019-02-16T09:40:03.578Z,11.60
2019-02-16T09:45:47.146Z,11.50
2019-02-16T09:51:53.473Z,11.70
2019-02-16T09:54:37.641Z,11.60
2019-02-16T09:57:18.997Z,11.70
2019-02-16T10:00:04.428Z,11.70
2019-02-16T10:02:49.958Z,12.00
2019-02-16T10:05:34.540Z,12.10
2019-02-16T10:08:33.965Z,12.10
2019-02-16T10:11:16.145Z,12.00
2019-02-16T10:14:02.031Z,11.90
2019-02-16T10:16:47.208Z,12.00
2019-02-16T10:19:30.443Z,12.00
2019-02-16T10:25:03.861Z,12.20
2019-02-16T10:27:48.644Z,12.20
2019-02-16T10:30:30.579Z,12.20
2019-02-16T10:36:21.572Z,12.40
2019-02-16T10:42:09.126Z,12.30
2019-02-16T10:45:09.505Z,12.40
2019-02-16T10:47:51.579Z,12.50
2019-02-16T10:50:36.076Z,12.40
2019-02-16T10:53:35.612Z,12.80
2019-02-16T10:59:28.690Z,12.60
2019-02-16T11:02:32.370Z,12.70
2019-02-16T11:14:01.219Z,13.10
2019-02-16T11:17:06.562Z,13.20
2019-02-16T11:20:15.741Z,13.20
2019-02-16T11:23:22.903Z,13.60
2019-02-16T11:26:30.225Z,13.80
2019-02-16T11:29:30.744Z,13.90
2019-02-16T11:37:55.979Z,14.10
2019-02-16T11:46:43.864Z,14.30
2019-02-16T11:49:26.606Z,14.40
2019-02-16T11:52:26.831Z,14.60
2019-02-16T11:55:27.614Z,14.60
2019-02-16T11:58:12.890Z,14.70
2019-02-16T12:00:57.741Z,14.60
2019-02-16T12:03:40.037Z,14.70
2019-02-16T12:06:43.264Z,14.80
2019-02-16T12:09:44.788Z,14.70
2019-02-16T12:15:18.909Z,15.30
2019-02-16T12:21:11.466Z,15.20
2019-02-16T12:23:54.360Z,15.20
2019-02-16T12:26:39.647Z,15.20
2019-02-16T12:29:27.497Z,15.10
2019-02-16T12:32:54.084Z,15.30
2019-02-16T12:35:42.584Z,15.50
2019-02-16T12:38:27.574Z,15.50
2019-02-16T12:41:30.349Z,15.60
2019-02-16T12:47:34.910Z,15.70
2019-02-16T12:53:29.388Z,16.20
2019-02-16T12:56:13.959Z,16.30
2019-02-16T13:02:03.389Z,16.10
2019-02-16T13:05:03.392Z,15.90
2019-02-16T13:08:05.059Z,16.30
2019-02-16T13:10:52.850Z,16.00
2019-02-16T13:16:59.031Z,15.80
2019-02-16T13:20:03.655Z,15.70
2019-02-16T13:23:10.613Z,16.00
2019-02-16T13:26:17.579Z,16.00
2019-02-16T13:29:24.764Z,16.00
2019-02-16T13:32:31.753Z,15.80
2019-02-16T13:35:19.362Z,15.80
2019-02-16T13:38:26.316Z,15.80
2019-02-16T13:44:32.284Z,15.50
2019-02-16T13:47:32.009Z,15.70
2019-02-16T13:50:31.741Z,15.70
2019-02-16T13:53:31.688Z,15.80
2019-02-16T13:56:19.417Z,15.80
2019-02-16T14:05:24.557Z,15.70
2019-02-16T14:11:40.027Z,16.10
2019-02-16T14:14:47.018Z,15.90
2019-02-16T14:17:54.216Z,15.70
2019-02-16T14:20:42.014Z,15.60
2019-02-16T14:23:29.788Z,15.50
2019-02-16T14:26:17.597Z,15.50
2019-02-16T14:29:05.458Z,15.50
2019-02-16T14:31:53.226Z,15.50
2019-02-16T14:34:41.003Z,15.50
2019-02-16T14:37:47.971Z,15.40
2019-02-16T14:40:36.105Z,15.40
2019-02-16T14:43:23.893Z,15.40
2019-02-16T14:46:11.628Z,15.40
2019-02-16T14:48:52.277Z,15.30
2019-02-16T14:51:32.913Z,15.30
2019-02-16T14:54:01.343Z,15.40
2019-02-16T14:56:29.751Z,15.40
2019-02-16T14:59:17.534Z,15.30
2019-02-16T15:02:05.295Z,15.30
2019-02-16T15:04:53.060Z,15.20
2019-02-16T15:07:40.804Z,15.30
2019-02-16T15:10:28.581Z,15.30
2019-02-16T15:13:16.329Z,15.30
2019-02-16T15:16:04.389Z,15.20
2019-02-16T15:18:52.141Z,15.10
2019-02-16T15:21:39.921Z,15.10
2019-02-16T15:24:27.704Z,15.10
2019-02-16T15:27:15.465Z,15.10
2019-02-16T15:30:03.241Z,15.00
2019-02-16T15:32:51.000Z,15.00
2019-02-16T15:35:38.772Z,15.00
2019-02-16T15:38:26.576Z,14.90
2019-02-16T15:41:14.396Z,14.90
2019-02-16T15:44:02.168Z,14.90
2019-02-16T15:46:50.384Z,14.90
2019-02-16T15:49:31.268Z,14.80
2019-02-16T15:52:11.696Z,14.80
2019-02-16T15:54:52.319Z,14.80
2019-02-16T15:57:33.206Z,14.80
2019-02-16T16:00:15.238Z,14.80
2019-02-16T16:02:56.546Z,14.70
2019-02-16T16:05:37.435Z,14.60
2019-02-16T16:08:20.205Z,14.60
2019-02-16T16:11:05.716Z,14.60
2019-02-16T16:14:06.631Z,14.60
2019-02-16T16:16:48.709Z,14.60
2019-02-16T16:19:31.132Z,14.70
2019-02-16T16:22:31.454Z,14.60
2019-02-16T16:25:13.230Z,14.60
2019-02-16T16:27:55.471Z,14.50
2019-02-16T16:30:40.551Z,14.50
2019-02-16T16:33:40.551Z,14.50
2019-02-16T16:36:40.296Z,14.50
2019-02-16T16:39:22.847Z,14.40
2019-02-16T16:48:10.069Z,14.30
2019-02-16T16:50:52.508Z,14.20
2019-02-16T16:53:34.936Z,14.30
2019-02-16T16:56:28.426Z,14.30
2019-02-16T16:59:21.925Z,14.30
2019-02-16T17:04:58.356Z,14.20
2019-02-16T17:07:43.928Z,14.20
2019-02-16T17:10:25.820Z,14.20
2019-02-16T17:16:32.584Z,14.10
2019-02-16T17:19:14.586Z,14.10
2019-02-16T17:22:14.076Z,14.00
2019-02-16T17:27:50.000Z,14.00
2019-02-16T17:30:50.037Z,14.00
2019-02-16T17:33:49.613Z,14.00
2019-02-16T17:39:41.824Z,14.00
2019-02-16T17:42:24.577Z,13.90
2019-02-16T17:45:24.305Z,13.90
2019-02-16T17:48:24.377Z,13.80
2019-02-16T17:51:06.528Z,13.70
2019-02-16T17:54:08.752Z,13.70
2019-02-16T17:59:47.700Z,13.70
2019-02-16T18:02:47.694Z,13.70
2019-02-16T18:05:47.124Z,13.60
2019-02-16T18:08:46.597Z,13.70
2019-02-16T18:11:31.993Z,13.70
2019-02-16T18:14:31.413Z,13.60
2019-02-16T18:17:14.036Z,13.60
2019-02-16T18:19:59.537Z,13.60
2019-02-16T18:22:59.772Z,13.50
2019-02-16T18:25:59.869Z,13.50
2019-02-16T18:29:00.185Z,13.50
2019-02-16T18:31:42.113Z,13.40
2019-02-16T18:34:42.037Z,13.40
2019-02-16T18:37:24.216Z,13.40
2019-02-16T18:40:24.434Z,13.30
2019-02-16T18:46:18.249Z,13.30
2019-02-16T18:49:18.406Z,13.30
2019-02-16T18:55:25.938Z,13.30
2019-02-16T18:58:07.750Z,13.30
2019-02-16T19:04:02.050Z,13.10
2019-02-16T19:06:44.381Z,13.10
2019-02-16T19:09:44.898Z,13.00
2019-02-16T19:12:27.221Z,13.00
2019-02-16T19:15:12.340Z,13.00
2019-02-16T19:18:12.541Z,13.00
2019-02-16T19:21:12.159Z,12.90
2019-02-16T19:23:56.781Z,12.90
2019-02-16T19:26:41.452Z,12.90
2019-02-16T19:29:23.783Z,12.90
2019-02-16T19:32:06.318Z,12.90
2019-02-16T19:34:51.029Z,12.90
2019-02-16T19:37:33.032Z,12.80
2019-02-16T19:40:15.242Z,12.90
2019-02-16T19:42:57.766Z,12.80
2019-02-16T19:45:42.961Z,12.90
2019-02-16T19:48:43.331Z,12.90
2019-02-16T19:54:19.156Z,12.80
2019-02-16T19:57:01.061Z,12.80
2019-02-16T19:59:48.933Z,12.80
2019-02-16T20:02:55.892Z,12.80
2019-02-16T20:06:02.846Z,12.80
2019-02-16T20:12:04.743Z,12.70
2019-02-16T20:21:19.097Z,12.60
2019-02-16T20:24:26.273Z,12.60
2019-02-16T20:30:28.273Z,12.60
2019-02-16T20:33:35.219Z,12.60
2019-02-16T20:36:42.189Z,12.60
2019-02-16T20:39:49.156Z,12.60
2019-02-16T20:42:56.101Z,12.60
2019-02-16T20:48:50.762Z,12.60
2019-02-16T20:51:32.938Z,12.50
2019-02-16T20:54:18.784Z,12.40
2019-02-16T21:00:25.645Z,12.40
2019-02-16T21:03:07.689Z,12.30
2019-02-16T21:06:08.017Z,12.40
2019-02-16T21:09:07.773Z,12.50
2019-02-16T21:20:39.216Z,12.10
2019-02-16T21:23:46.248Z,12.10
2019-02-16T21:26:53.224Z,12.10
2019-02-16T21:30:00.474Z,12.00
2019-02-16T21:36:15.957Z,12.00
2019-02-16T21:39:24.552Z,12.00
2019-02-16T21:42:31.529Z,12.00
2019-02-16T21:45:38.498Z,12.00
2019-02-16T21:48:45.469Z,12.10
2019-02-16T21:51:27.789Z,12.00
2019-02-16T21:57:20.658Z,11.80
2019-02-16T22:00:03.128Z,11.80
2019-02-16T22:02:48.520Z,11.80
2019-02-16T22:05:30.363Z,11.80
2019-02-16T22:08:15.006Z,11.90
2019-02-16T22:11:00.432Z,11.90
2019-02-16T22:13:41.229Z,11.90
2019-02-16T22:16:22.410Z,11.90
2019-02-16T22:19:03.418Z,11.80
2019-02-16T22:21:44.156Z,11.80
2019-02-16T22:24:24.850Z,11.70
2019-02-16T22:27:05.515Z,11.70
2019-02-16T22:29:46.579Z,11.80
2019-02-16T22:32:27.477Z,11.90
2019-02-16T22:35:08.157Z,11.90
2019-02-16T22:37:49.061Z,11.90
2019-02-16T22:40:29.639Z,11.90
2019-02-16T22:43:10.374Z,11.90
2019-02-16T22:45:51.658Z,11.80
2019-02-16T22:48:32.056Z,11.80
2019-02-16T22:51:13.106Z,11.80
2019-02-16T22:53:53.741Z,11.90
2019-02-16T22:56:34.620Z,11.90
2019-02-16T22:59:15.133Z,11.90
2019-02-16T23:01:55.752Z,11.90
2019-02-16T23:04:36.648Z,11.90
2019-02-16T23:07:17.680Z,11.90
2019-02-16T23:09:58.546Z,12.10
2019-02-16T23:12:39.173Z,12.10
2019-02-16T23:15:19.969Z,12.10
2019-02-16T23:18:00.592Z,12.00
2019-02-16T23:20:41.515Z,12.00
2019-02-16T23:23:22.064Z,12.00
2019-02-16T23:26:02.935Z,12.00
2019-02-16T23:28:43.729Z,12.10
2019-02-16T23:31:24.312Z,12.30
2019-02-16T23:34:05.085Z,12.30
2019-02-16T23:36:46.299Z,12.20
2019-02-16T23:39:26.870Z,12.20
2019-02-16T23:42:07.405Z,12.10
2019-02-16T23:44:48.543Z,12.20
2019-02-16T23:47:29.343Z,12.20
2019-02-16T23:50:10.189Z,12.20
2019-02-16T23:52:51.094Z,12.20
2019-02-16T23:55:31.977Z,12.20
2019-02-16T23:58:12.331Z,12.20
